createdAt,value
2023-04-01T00:00:41.041Z,92.59
2023-04-01T00:03:44.311Z,93.33
2023-04-01T00:06:48.530Z,93.29
2023-04-01T00:09:51.820Z,93.51
2023-04-01T00:12:54.769Z,93.34
2023-04-01T00:15:59.976Z,94.51
2023-04-01T00:19:03.416Z,94.62
2023-04-01T00:22:07.270Z,95.51
2023-04-01T00:25:10.664Z,95.31
2023-04-01T00:28:13.843Z,95.45
2023-04-01T00:31:16.756Z,95.02
2023-04-01T00:34:19.622Z,96.27
2023-04-01T00:37:22.532Z,96.07
2023-04-01T00:40:30.007Z,95.39
2023-04-01T00:43:33.356Z,95.67
2023-04-01T00:46:36.750Z,96.47
2023-04-01T00:49:43.829Z,97.43
2023-04-01T00:52:47.535Z,97.37
2023-04-01T00:56:13.104Z,97.94
2023-04-01T00:59:25.943Z,97.85
2023-04-01T01:02:29.108Z,97.92
2023-04-01T01:05:49.437Z,98.63
2023-04-01T01:08:52.966Z,98.53
2023-04-01T01:12:00.972Z,98.31
2023-04-01T01:15:24.478Z,97.98
2023-04-01T01:18:48.418Z,98.84
2023-04-01T01:22:03.368Z,99.38
2023-04-01T01:25:28.187Z,98.71
2023-04-01T01:28:37.418Z,99.96
2023-04-01T01:32:17.746Z,100.00
2023-04-01T01:35:39.349Z,100.00
2023-04-01T01:38:52.269Z,100.00
2023-04-01T01:41:58.628Z,99.64
2023-04-01T01:45:03.784Z,100.00
2023-04-01T01:48:10.250Z,100.00
2023-04-01T01:51:13.200Z,100.00
2023-04-01T01:54:18.800Z,100.00
2023-04-01T01:57:26.734Z,100.00
2023-04-01T02:00:36.465Z,100.00
2023-04-01T02:03:40.884Z,100.00
2023-04-01T02:06:49.241Z,100.00
2023-04-01T02:09:52.965Z,100.00
2023-04-01T02:13:02.586Z,100.00
2023-04-01T02:16:13.509Z,100.00
2023-04-01T02:19:23.803Z,100.00
2023-04-01T02:22:32.595Z,100.00
2023-04-01T02:25:37.782Z,100.00
2023-04-01T02:28:43.616Z,100.00
2023-04-01T02:31:47.230Z,100.00
2023-04-01T02:34:50.860Z,100.00
2023-04-01T02:37:55.500Z,100.00
2023-04-01T02:41:01.997Z,100.00
2023-04-01T02:44:05.046Z,100.00
2023-04-01T02:47:07.828Z,100.00
2023-04-01T02:50:11.234Z,100.00
2023-04-01T02:53:14.175Z,100.00
2023-04-01T02:56:16.971Z,100.00
2023-04-01T02:59:20.098Z,100.00
2023-04-01T03:02:23.063Z,100.00
2023-04-01T03:05:26.231Z,100.00
2023-04-01T03:08:29.343Z,100.00
2023-04-01T03:11:32.174Z,100.00
2023-04-01T03:14:35.202Z,100.00
2023-04-01T03:17:39.535Z,100.00
2023-04-01T03:20:42.290Z,100.00
2023-04-01T03:23:45.490Z,100.00
2023-04-01T03:26:48.390Z,100.00
2023-04-01T03:29:51.804Z,100.00
2023-04-01T03:32:54.656Z,100.00
2023-04-01T03:35:57.470Z,100.00
2023-04-01T03:39:00.366Z,100.00
2023-04-01T03:42:11.679Z,100.00
2023-04-01T03:45:14.815Z,100.00
2023-04-01T03:48:18.208Z,100.00
2023-04-01T03:51:21.237Z,100.00
2023-04-01T03:54:24.561Z,100.00
2023-04-01T03:57:27.605Z,99.24
2023-04-01T04:00:34.501Z,98.66
2023-04-01T04:03:38.537Z,98.60
2023-04-01T04:06:41.611Z,99.09
2023-04-01T04:09:44.578Z,100.00
2023-04-01T04:12:47.721Z,100.00
2023-04-01T04:15:51.516Z,100.00
2023-04-01T04:18:54.960Z,100.00
2023-04-01T04:21:57.780Z,100.00
2023-04-01T04:25:00.884Z,100.00
2023-04-01T04:28:03.851Z,100.00
2023-04-01T04:31:07.521Z,100.00
2023-04-01T04:34:11.793Z,100.00
2023-04-01T04:37:14.749Z,100.00
2023-04-01T04:40:17.722Z,99.90
2023-04-01T04:43:21.032Z,99.97
2023-04-01T04:46:24.838Z,100.00
2023-04-01T04:49:33.998Z,100.00
2023-04-01T04:52:41.968Z,100.00
2023-04-01T04:55:50.052Z,100.00
2023-04-01T04:59:08.326Z,99.64
2023-04-01T05:02:34.568Z,99.17
2023-04-01T05:05:38.285Z,99.06
2023-04-01T05:08:42.304Z,99.42
2023-04-01T05:11:45.310Z,99.36
2023-04-01T05:14:48.154Z,98.07
2023-04-01T05:17:51.566Z,98.46
2023-04-01T05:20:55.736Z,98.95
2023-04-01T05:23:58.979Z,98.83
2023-04-01T05:27:02.718Z,99.09
2023-04-01T05:30:06.990Z,99.34
2023-04-01T05:33:18.880Z,99.60
2023-04-01T05:36:21.738Z,99.28
2023-04-01T05:39:24.768Z,100.00
2023-04-01T05:42:27.702Z,99.67
2023-04-01T05:45:31.319Z,99.41
2023-04-01T05:48:54.522Z,99.56
2023-04-01T05:51:58.514Z,99.58
2023-04-01T05:55:01.857Z,99.99
2023-04-01T05:58:05.045Z,99.76
2023-04-01T06:01:15.828Z,98.86
2023-04-01T06:04:21.093Z,99.72
2023-04-01T06:07:23.975Z,99.27
2023-04-01T06:10:44.844Z,98.72
2023-04-01T06:14:01.716Z,99.53
2023-04-01T06:17:26.229Z,98.24
2023-04-01T06:20:32.194Z,98.75
2023-04-01T06:23:51.067Z,98.35
2023-04-01T06:27:09.297Z,98.24
2023-04-01T06:30:34.447Z,99.16
2023-04-01T06:33:43.657Z,98.94
2023-04-01T06:36:55.646Z,98.44
2023-04-01T06:40:07.596Z,99.15
2023-04-01T06:43:30.777Z,98.63
2023-04-01T06:47:03.662Z,99.27
2023-04-01T06:50:42.547Z,98.97
2023-04-01T06:54:19.232Z,98.20
2023-04-01T06:57:48.736Z,98.73
2023-04-01T07:01:00.011Z,98.63
2023-04-01T07:04:11.478Z,98.97
2023-04-01T07:07:39.117Z,98.33
2023-04-01T07:10:54.725Z,97.85
2023-04-01T07:14:45.928Z,98.45
2023-04-01T07:17:54.802Z,97.55
2023-04-01T07:20:58.753Z,97.52
2023-04-01T07:24:07.958Z,98.21
2023-04-01T07:27:26.708Z,97.69
2023-04-01T07:30:44.196Z,98.23
2023-04-01T07:34:08.359Z,97.33
2023-04-01T07:37:46.778Z,97.30
2023-04-01T07:41:06.132Z,95.83
2023-04-01T07:44:28.495Z,94.62
2023-04-01T07:48:02.378Z,94.88
2023-04-01T07:51:14.978Z,93.81
2023-04-01T07:54:46.478Z,93.19
2023-04-01T07:58:01.472Z,92.77
2023-04-01T08:01:12.096Z,91.27
2023-04-01T08:04:50.266Z,90.42
2023-04-01T08:08:14.563Z,89.32
2023-04-01T08:11:59.320Z,88.97
2023-04-01T08:15:28.425Z,89.23
2023-04-01T08:18:51.057Z,88.22
2023-04-01T08:21:58.794Z,87.65
2023-04-01T08:25:05.344Z,88.79
2023-04-01T08:28:08.205Z,88.21
2023-04-01T08:31:17.356Z,88.14
2023-04-01T08:34:37.674Z,87.67
2023-04-01T08:37:42.426Z,88.03
2023-04-01T08:40:53.900Z,87.47
2023-04-01T08:44:23.035Z,88.75
2023-04-01T08:47:33.789Z,86.78
2023-04-01T08:50:56.015Z,86.31
2023-04-01T08:54:24.172Z,86.01
2023-04-01T08:57:52.084Z,85.29
2023-04-01T09:01:34.113Z,85.16
2023-04-01T09:04:49.589Z,84.37
2023-04-01T09:08:01.450Z,83.14
2023-04-01T09:11:22.762Z,83.32
2023-04-01T09:14:56.056Z,84.15
2023-04-01T09:18:37.607Z,82.66
2023-04-01T09:21:52.333Z,82.79
2023-04-01T09:25:29.853Z,83.20
2023-04-01T09:28:43.888Z,81.75
2023-04-01T09:31:58.895Z,81.55
2023-04-01T09:35:24.629Z,81.06
2023-04-01T09:38:38.859Z,82.53
2023-04-01T09:41:54.723Z,82.24
2023-04-01T09:45:46.675Z,82.91
2023-04-01T09:49:05.327Z,83.76
2023-04-01T09:52:49.686Z,84.09
2023-04-01T09:56:40.624Z,84.31
2023-04-01T10:00:11.891Z,82.29
2023-04-01T10:03:42.628Z,81.68
2023-04-01T10:06:59.762Z,81.29
2023-04-01T10:10:15.641Z,80.75
2023-04-01T10:13:31.440Z,81.49
2023-04-01T10:17:02.396Z,81.38
2023-04-01T10:20:29.687Z,79.00
2023-04-01T10:23:49.342Z,79.22
2023-04-01T10:27:19.368Z,79.52
2023-04-01T10:31:04.500Z,79.92
2023-04-01T10:34:49.976Z,78.49
2023-04-01T10:38:10.131Z,78.47
2023-04-01T10:41:54.466Z,78.53
2023-04-01T10:45:52.825Z,79.66
2023-04-01T10:49:33.869Z,79.61
2023-04-01T10:53:02.313Z,76.50
2023-04-01T10:56:51.661Z,76.22
2023-04-01T11:00:40.213Z,75.28
2023-04-01T11:04:39.389Z,75.11
2023-04-01T11:08:38.577Z,74.62
2023-04-01T11:12:08.245Z,76.20
2023-04-01T11:15:42.324Z,76.57
2023-04-01T11:18:49.656Z,78.06
2023-04-01T11:21:55.516Z,77.90
2023-04-01T11:25:34.476Z,78.55
2023-04-01T11:29:21.435Z,79.60
2023-04-01T11:32:49.340Z,79.03
2023-04-01T11:36:07.806Z,77.86
2023-04-01T11:39:31.482Z,76.86
2023-04-01T11:43:19.916Z,78.32
2023-04-01T11:47:31.426Z,77.50
2023-04-01T11:51:00.500Z,76.82
2023-04-01T11:54:42.449Z,76.74
2023-04-01T11:57:46.834Z,77.38
2023-04-01T12:00:52.636Z,77.27
2023-04-01T12:04:24.478Z,77.58
2023-04-01T12:08:03.243Z,78.56
2023-04-01T12:11:25.155Z,77.26
2023-04-01T12:14:37.669Z,75.99
2023-04-01T12:18:01.045Z,74.99
2023-04-01T12:21:12.700Z,75.55
2023-04-01T12:24:36.688Z,74.46
2023-04-01T12:27:56.192Z,72.26
2023-04-01T12:31:24.435Z,70.77
2023-04-01T12:35:19.491Z,70.86
2023-04-01T12:38:43.443Z,66.80
2023-04-01T12:42:23.757Z,68.34
2023-04-01T12:45:33.677Z,68.83
2023-04-01T12:49:18.640Z,66.23
2023-04-01T12:52:49.476Z,63.46
2023-04-01T12:55:53.958Z,64.06
2023-04-01T12:59:35.121Z,66.42
2023-04-01T13:03:06.331Z,67.06
2023-04-01T13:06:26.750Z,66.35
2023-04-01T13:10:08.059Z,62.50
2023-04-01T13:13:41.712Z,62.35
2023-04-01T13:16:55.517Z,62.33
2023-04-01T13:20:10.828Z,65.58
2023-04-01T13:23:22.709Z,66.08
2023-04-01T13:26:46.145Z,66.22
2023-04-01T13:30:21.379Z,67.50
2023-04-01T13:33:33.713Z,68.47
2023-04-01T13:36:46.208Z,69.11
2023-04-01T13:40:46.756Z,65.92
2023-04-01T13:44:10.769Z,60.08
2023-04-01T13:47:26.965Z,56.78
2023-04-01T13:50:59.735Z,55.48
2023-04-01T13:54:11.499Z,56.04
2023-04-01T13:57:36.308Z,57.32
2023-04-01T14:00:54.645Z,58.07
2023-04-01T14:04:31.728Z,61.44
2023-04-01T14:07:46.649Z,62.38
2023-04-01T14:11:20.407Z,63.68
2023-04-01T14:14:47.754Z,63.70
2023-04-01T14:18:17.431Z,63.62
2023-04-01T14:21:29.062Z,63.29
2023-04-01T14:24:54.318Z,62.88
2023-04-01T14:28:13.552Z,60.99
2023-04-01T14:31:28.603Z,61.42
2023-04-01T14:34:43.530Z,61.18
2023-04-01T14:38:27.405Z,61.55
2023-04-01T14:41:54.869Z,63.45
2023-04-01T14:45:04.165Z,66.47
2023-04-01T14:48:28.806Z,67.92
2023-04-01T14:51:38.726Z,64.56
2023-04-01T14:54:45.466Z,65.62
2023-04-01T14:58:22.972Z,65.45
2023-04-01T15:01:52.042Z,64.29
2023-04-01T15:05:36.765Z,64.26
2023-04-01T15:08:59.464Z,64.10
2023-04-01T15:12:02.357Z,65.57
2023-04-01T15:15:23.990Z,68.29
2023-04-01T15:18:42.411Z,72.44
2023-04-01T15:21:45.136Z,73.57
2023-04-01T15:24:54.007Z,72.42
2023-04-01T15:27:56.875Z,72.37
2023-04-01T15:31:59.186Z,73.11
2023-04-01T15:35:07.977Z,72.88
2023-04-01T15:38:35.484Z,73.58
2023-04-01T15:41:41.629Z,74.03
2023-04-01T15:45:02.329Z,74.37
2023-04-01T15:48:32.774Z,74.26
2023-04-01T15:51:51.007Z,75.01
2023-04-01T15:55:05.628Z,76.97
2023-04-01T15:58:32.164Z,77.27
2023-04-01T16:01:56.237Z,77.59
2023-04-01T16:05:34.705Z,78.86
2023-04-01T16:09:02.480Z,80.22
2023-04-01T16:12:17.815Z,80.69
2023-04-01T16:15:29.784Z,81.11
2023-04-01T16:18:49.985Z,82.09
2023-04-01T16:22:06.562Z,82.69
2023-04-01T16:25:37.731Z,83.65
2023-04-01T16:29:05.515Z,83.89
2023-04-01T16:32:47.098Z,83.98
2023-04-01T16:36:10.096Z,83.20
2023-04-01T16:39:42.046Z,82.70
2023-04-01T16:43:06.962Z,82.40
2023-04-01T16:46:34.230Z,81.39
2023-04-01T16:49:55.148Z,81.72
2023-04-01T16:53:01.965Z,82.81
2023-04-01T16:56:16.914Z,83.57
2023-04-01T16:59:39.846Z,84.04
2023-04-01T17:02:52.035Z,84.48
2023-04-01T17:06:07.504Z,84.54
2023-04-01T17:09:38.686Z,85.00
2023-04-01T17:13:02.933Z,85.37
2023-04-01T17:16:09.060Z,85.36
2023-04-01T17:19:59.311Z,85.33
2023-04-01T17:23:28.516Z,85.37
2023-04-01T17:27:03.238Z,85.51
2023-04-01T17:30:16.917Z,86.29
2023-04-01T17:33:26.036Z,86.65
2023-04-01T17:36:49.806Z,86.97
2023-04-01T17:40:06.100Z,87.83
2023-04-01T17:43:24.246Z,88.32
2023-04-01T17:47:02.684Z,89.54
2023-04-01T17:50:37.577Z,90.08
2023-04-01T17:53:59.025Z,90.43
2023-04-01T17:57:30.730Z,90.68
2023-04-01T18:00:53.818Z,91.46
2023-04-01T18:04:32.965Z,91.97
2023-04-01T18:07:54.088Z,92.35
2023-04-01T18:11:03.263Z,92.83
2023-04-01T18:14:28.077Z,93.24
2023-04-01T18:17:42.651Z,93.74
2023-04-01T18:20:59.169Z,95.25
2023-04-01T18:24:34.670Z,95.16
2023-04-01T18:28:23.647Z,95.26
2023-04-01T18:31:36.918Z,96.19
2023-04-01T18:34:45.758Z,96.31
2023-04-01T18:38:17.645Z,96.54
2023-04-01T18:41:24.272Z,97.49
2023-04-01T18:44:43.253Z,97.74
2023-04-01T18:48:10.179Z,97.38
2023-04-01T18:51:16.171Z,97.72
2023-04-01T18:54:31.737Z,97.40
2023-04-01T18:57:54.281Z,96.04
2023-04-01T19:01:06.259Z,95.78
2023-04-01T19:04:31.907Z,95.85
2023-04-01T19:07:37.796Z,97.26
2023-04-01T19:11:12.854Z,97.82
2023-04-01T19:14:30.538Z,98.83
2023-04-01T19:17:45.853Z,98.23
2023-04-01T19:20:58.486Z,98.37
2023-04-01T19:24:46.709Z,98.18
2023-04-01T19:28:17.597Z,97.75
2023-04-01T19:31:26.821Z,97.18
2023-04-01T19:34:58.569Z,97.21
2023-04-01T19:38:08.913Z,97.11
2023-04-01T19:41:11.944Z,97.88
2023-04-01T19:44:21.044Z,97.84
2023-04-01T19:47:51.679Z,97.68
2023-04-01T19:51:02.091Z,97.00
2023-04-01T19:54:14.256Z,96.75
2023-04-01T19:57:23.488Z,97.22
2023-04-01T20:00:36.189Z,97.05
2023-04-01T20:03:55.364Z,96.50
2023-04-01T20:07:05.654Z,96.01
2023-04-01T20:10:23.604Z,97.12
2023-04-01T20:13:33.532Z,96.80
2023-04-01T20:16:54.692Z,97.61
2023-04-01T20:20:09.946Z,97.69
2023-04-01T20:23:12.979Z,98.83
2023-04-01T20:26:31.448Z,98.74
2023-04-01T20:30:07.015Z,98.37
2023-04-01T20:33:46.914Z,98.33
2023-04-01T20:36:53.162Z,99.26
2023-04-01T20:40:36.459Z,99.75
2023-04-01T20:43:51.526Z,99.04
2023-04-01T20:47:08.515Z,99.33
2023-04-01T20:50:34.489Z,99.53
2023-04-01T20:53:45.164Z,98.99
2023-04-01T20:57:06.505Z,99.51
2023-04-01T21:00:31.489Z,99.87
2023-04-01T21:03:48.505Z,100.00
2023-04-01T21:07:32.716Z,99.75
2023-04-01T21:10:44.889Z,100.00
2023-04-01T21:14:12.859Z,100.00
2023-04-01T21:17:51.188Z,100.00
2023-04-01T21:21:21.657Z,100.00
2023-04-01T21:24:45.763Z,100.00
2023-04-01T21:28:03.855Z,100.00
2023-04-01T21:31:28.472Z,100.00
2023-04-01T21:34:44.709Z,100.00
2023-04-01T21:37:53.445Z,100.00
2023-04-01T21:41:19.752Z,100.00
2023-04-01T21:44:40.112Z,100.00
2023-04-01T21:48:01.841Z,100.00
2023-04-01T21:51:15.585Z,100.00
2023-04-01T21:54:40.052Z,99.32
2023-04-01T21:57:52.055Z,100.00
2023-04-01T22:01:32.354Z,100.00
2023-04-01T22:04:54.414Z,100.00
2023-04-01T22:08:01.524Z,100.00
2023-04-01T22:11:37.803Z,100.00
2023-04-01T22:14:43.066Z,100.00
2023-04-01T22:18:04.363Z,100.00
2023-04-01T22:21:17.686Z,100.00
2023-04-01T22:24:43.045Z,100.00
2023-04-01T22:28:04.566Z,100.00
2023-04-01T22:31:11.636Z,100.00
2023-04-01T22:34:25.861Z,100.00
2023-04-01T22:37:50.328Z,100.00
2023-04-01T22:40:59.116Z,100.00
2023-04-01T22:44:02.171Z,100.00
2023-04-01T22:47:40.383Z,100.00
2023-04-01T22:51:07.225Z,100.00
2023-04-01T22:54:28.944Z,100.00
2023-04-01T22:57:31.824Z,100.00
2023-04-01T23:00:41.999Z,100.00
2023-04-01T23:03:50.541Z,100.00
2023-04-01T23:06:59.120Z,100.00
2023-04-01T23:10:03.870Z,100.00
2023-04-01T23:13:11.785Z,100.00
2023-04-01T23:16:14.952Z,100.00
2023-04-01T23:19:39.469Z,100.00
2023-04-01T23:22:58.511Z,100.00
2023-04-01T23:26:27.536Z,100.00
2023-04-01T23:29:30.761Z,100.00
2023-04-01T23:32:33.581Z,100.00
2023-04-01T23:35:51.424Z,100.00
2023-04-01T23:38:55.399Z,100.00
2023-04-01T23:42:06.417Z,100.00
2023-04-01T23:45:18.612Z,100.00
2023-04-01T23:48:30.303Z,100.00
2023-04-01T23:51:50.205Z,100.00
2023-04-01T23:54:55.028Z,100.00
2023-04-01T23:58:06.992Z,100.00
